createdAt,value
2018-12-23T00:00:59.920Z,1013.21
2018-12-23T00:01:59.837Z,1013.23
2018-12-23T00:02:59.805Z,1013.15
2018-12-23T00:03:59.775Z,1013.20
2018-12-23T00:04:59.743Z,1013.18
2018-12-23T00:05:59.713Z,1013.10
2018-12-23T00:06:59.681Z,1013.19
2018-12-23T00:07:59.649Z,1013.11
2018-12-23T00:08:59.623Z,1013.12
2018-12-23T00:09:59.596Z,1013.17
2018-12-23T00:10:59.556Z,1013.13
2018-12-23T00:11:59.535Z,1013.11
2018-12-23T00:12:59.497Z,1013.12
2018-12-23T00:13:59.464Z,1013.11
2018-12-23T00:14:59.434Z,1013.07
2018-12-23T00:15:59.400Z,1013.11
2018-12-23T00:16:59.370Z,1013.16
2018-12-23T00:17:59.339Z,1013.19
2018-12-23T00:18:59.308Z,1013.11
2018-12-23T00:19:59.277Z,1013.22
2018-12-23T00:20:59.551Z,1013.25
2018-12-23T00:21:59.226Z,1013.17
2018-12-23T00:22:59.181Z,1013.22
2018-12-23T00:23:59.156Z,1013.27
2018-12-23T00:24:59.119Z,1013.28
2018-12-23T00:25:59.090Z,1013.26
2018-12-23T00:26:59.058Z,1013.26
2018-12-23T00:27:59.026Z,1013.36
2018-12-23T00:28:58.995Z,1013.32
2018-12-23T00:29:58.968Z,1013.28
2018-12-23T00:30:58.931Z,1013.34
2018-12-23T00:31:58.902Z,1013.34
2018-12-23T00:32:58.873Z,1013.36
2018-12-23T00:33:58.839Z,1013.25
2018-12-23T00:34:58.812Z,1013.29
2018-12-23T00:35:58.775Z,1013.37
2018-12-23T00:36:58.746Z,1013.35
2018-12-23T00:37:58.714Z,1013.38
2018-12-23T00:38:58.683Z,1013.39
2018-12-23T00:39:58.651Z,1013.35
2018-12-23T00:40:58.619Z,1013.34
2018-12-23T00:41:58.592Z,1013.36
2018-12-23T00:42:58.558Z,1013.39
2018-12-23T00:43:58.529Z,1013.42
2018-12-23T00:44:58.496Z,1013.35
2018-12-23T00:45:58.464Z,1013.30
2018-12-23T00:46:58.433Z,1013.36
2018-12-23T00:47:58.402Z,1013.33
2018-12-23T00:48:58.370Z,1013.28
2018-12-23T00:49:58.340Z,1013.31
2018-12-23T00:50:58.308Z,1013.34
2018-12-23T00:51:58.276Z,1013.30
2018-12-23T00:52:58.246Z,1013.33
2018-12-23T00:53:58.215Z,1013.37
2018-12-23T00:54:58.182Z,1013.38
2018-12-23T00:55:58.154Z,1013.43
2018-12-23T00:56:58.127Z,1013.47
2018-12-23T00:57:58.094Z,1013.45
2018-12-23T00:58:58.062Z,1013.46
2018-12-23T00:59:58.029Z,1013.39
2018-12-23T01:00:58.000Z,1013.33
2018-12-23T01:01:57.966Z,1013.39
2018-12-23T01:02:57.937Z,1013.38
2018-12-23T01:03:57.903Z,1013.34
2018-12-23T01:04:57.872Z,1013.34
2018-12-23T01:05:57.997Z,1013.28
2018-12-23T01:06:57.810Z,1013.46
2018-12-23T01:07:57.779Z,1013.42
2018-12-23T01:08:57.748Z,1013.41
2018-12-23T01:09:57.716Z,1013.47
2018-12-23T01:10:57.684Z,1013.42
2018-12-23T01:11:57.655Z,1013.46
2018-12-23T01:12:57.624Z,1013.41
2018-12-23T01:13:57.592Z,1013.39
2018-12-23T01:14:57.568Z,1013.48
2018-12-23T01:15:57.529Z,1013.47
2018-12-23T01:16:57.501Z,1013.44
2018-12-23T01:17:57.468Z,1013.41
2018-12-23T01:18:57.437Z,1013.47
2018-12-23T01:19:57.412Z,1013.47
2018-12-23T01:20:57.387Z,1013.46
2018-12-23T01:21:57.351Z,1013.48
2018-12-23T01:22:57.843Z,1013.47
2018-12-23T01:23:57.290Z,1013.49
2018-12-23T01:24:57.250Z,1013.45
2018-12-23T01:25:57.220Z,1013.45
2018-12-23T01:26:57.189Z,1013.50
2018-12-23T01:27:57.157Z,1013.48
2018-12-23T01:28:57.129Z,1013.45
2018-12-23T01:29:57.097Z,1013.40
2018-12-23T01:30:57.144Z,1013.42
2018-12-23T01:31:57.034Z,1013.44
2018-12-23T01:32:57.003Z,1013.46
2018-12-23T01:33:56.973Z,1013.51
2018-12-23T01:34:56.994Z,1013.41
2018-12-23T01:35:56.911Z,1013.50
2018-12-23T01:36:56.880Z,1013.38
2018-12-23T01:37:56.852Z,1013.47
2018-12-23T01:38:56.815Z,1013.39
2018-12-23T01:39:56.786Z,1013.49
2018-12-23T01:40:56.755Z,1013.32
2018-12-23T01:41:56.727Z,1013.35
2018-12-23T01:42:56.693Z,1013.34
2018-12-23T01:43:56.662Z,1013.33
2018-12-23T01:44:56.631Z,1013.31
2018-12-23T01:45:56.600Z,1013.26
2018-12-23T01:46:56.571Z,1013.29
2018-12-23T01:47:56.539Z,1013.25
2018-12-23T01:48:56.511Z,1013.24
2018-12-23T01:49:56.478Z,1013.21
2018-12-23T01:50:56.446Z,1013.22
2018-12-23T01:51:56.420Z,1013.26
2018-12-23T01:52:56.384Z,1013.22
2018-12-23T01:53:56.352Z,1013.27
2018-12-23T01:54:56.326Z,1013.30
2018-12-23T01:55:56.292Z,1013.32
2018-12-23T01:56:56.269Z,1013.33
2018-12-23T01:57:56.229Z,1013.29
2018-12-23T01:58:56.198Z,1013.30
2018-12-23T01:59:56.166Z,1013.30
2018-12-23T02:00:56.147Z,1013.27
2018-12-23T02:01:56.106Z,1013.29
2018-12-23T02:02:56.076Z,1013.22
2018-12-23T02:03:56.043Z,1013.28
2018-12-23T02:04:56.012Z,1013.28
2018-12-23T02:05:55.982Z,1013.37
2018-12-23T02:06:55.951Z,1013.35
2018-12-23T02:07:55.919Z,1013.27
2018-12-23T02:08:55.890Z,1013.28
2018-12-23T02:09:55.860Z,1013.22
2018-12-23T02:10:55.826Z,1013.23
2018-12-23T02:11:55.806Z,1013.24
2018-12-23T02:12:55.766Z,1013.13
2018-12-23T02:13:55.735Z,1013.27
2018-12-23T02:14:55.704Z,1013.21
2018-12-23T02:15:55.673Z,1013.24
2018-12-23T02:16:55.643Z,1013.21
2018-12-23T02:17:55.611Z,1013.20
2018-12-23T02:18:55.579Z,1013.09
2018-12-23T02:19:55.550Z,1013.24
2018-12-23T02:20:55.518Z,1013.23
2018-12-23T02:21:55.490Z,1013.15
2018-12-23T02:22:55.458Z,1013.23
2018-12-23T02:23:55.426Z,1013.24
2018-12-23T02:24:55.397Z,1013.14
2018-12-23T02:25:55.364Z,1013.22
2018-12-23T02:26:55.430Z,1013.25
2018-12-23T02:27:55.303Z,1013.25
2018-12-23T02:28:55.273Z,1013.18
2018-12-23T02:29:55.242Z,1013.30
2018-12-23T02:30:55.213Z,1013.24
2018-12-23T02:31:55.179Z,1013.25
2018-12-23T02:32:55.152Z,1013.26
2018-12-23T02:33:55.118Z,1013.25
2018-12-23T02:34:55.099Z,1013.29
2018-12-23T02:35:55.814Z,1013.30
2018-12-23T02:36:55.025Z,1013.28
2018-12-23T02:37:55.016Z,1013.28
2018-12-23T02:38:57.555Z,1013.28
2018-12-23T02:39:54.956Z,1013.24
2018-12-23T02:40:54.906Z,1013.23
2018-12-23T02:41:54.872Z,1013.26
2018-12-23T02:42:54.841Z,1013.20
2018-12-23T02:43:54.810Z,1013.22
2018-12-23T02:44:54.780Z,1013.17
2018-12-23T02:45:54.758Z,1013.23
2018-12-23T02:46:54.718Z,1012.98
2018-12-23T02:47:54.686Z,1013.20
2018-12-23T02:48:54.658Z,1012.84
2018-12-23T02:49:54.627Z,1013.25
2018-12-23T02:50:54.594Z,1013.16
2018-12-23T02:51:54.563Z,1013.15
2018-12-23T02:52:54.532Z,1013.08
2018-12-23T02:53:54.502Z,1013.27
2018-12-23T02:54:54.472Z,1013.07
2018-12-23T02:55:54.441Z,1013.27
2018-12-23T02:56:54.409Z,1013.14
2018-12-23T02:57:54.378Z,1013.29
2018-12-23T02:58:54.346Z,1013.13
2018-12-23T02:59:54.326Z,1013.14
2018-12-23T03:00:54.285Z,1013.15
2018-12-23T03:01:54.255Z,1013.13
2018-12-23T03:02:54.223Z,1013.27
2018-12-23T03:03:54.191Z,1013.20
2018-12-23T03:04:54.164Z,1013.23
2018-12-23T03:05:54.131Z,1013.05
2018-12-23T03:06:54.100Z,1013.19
2018-12-23T03:07:54.071Z,1013.17
2018-12-23T03:08:54.053Z,1013.11
2018-12-23T03:09:54.009Z,1013.13
2018-12-23T03:10:53.978Z,1013.21
2018-12-23T03:11:53.945Z,1013.10
2018-12-23T03:12:53.916Z,1013.19
2018-12-23T03:13:53.886Z,1013.13
2018-12-23T03:14:53.852Z,1013.17
2018-12-23T03:15:53.822Z,1013.13
2018-12-23T03:16:53.791Z,1013.11
2018-12-23T03:17:53.760Z,1013.21
2018-12-23T03:18:53.729Z,1013.13
2018-12-23T03:19:53.697Z,1013.13
2018-12-23T03:20:53.668Z,1013.07
2018-12-23T03:21:53.639Z,1013.13
2018-12-23T03:22:53.606Z,1013.13
2018-12-23T03:23:53.575Z,1013.12
2018-12-23T03:24:53.545Z,1013.11
2018-12-23T03:25:53.519Z,1013.06
2018-12-23T03:26:53.483Z,1013.17
2018-12-23T03:27:53.452Z,1013.15
2018-12-23T03:28:53.420Z,1013.17
2018-12-23T03:29:53.392Z,1012.97
2018-12-23T03:30:53.368Z,1013.31
2018-12-23T03:31:53.331Z,1013.13
2018-12-23T03:32:53.304Z,1013.04
2018-12-23T03:33:53.282Z,1013.11
2018-12-23T03:34:53.235Z,1013.14
2018-12-23T03:35:53.206Z,1013.00
2018-12-23T03:36:53.174Z,1012.93
2018-12-23T03:37:53.144Z,1013.02
2018-12-23T03:38:53.116Z,1013.14
2018-12-23T03:39:53.082Z,1012.94
2018-12-23T03:40:53.052Z,1012.91
2018-12-23T03:41:53.023Z,1013.03
2018-12-23T03:42:52.990Z,1013.11
2018-12-23T03:43:52.959Z,1012.95
2018-12-23T03:44:52.935Z,1012.91
2018-12-23T03:45:52.900Z,1012.99
2018-12-23T03:46:52.866Z,1013.11
2018-12-23T03:47:52.835Z,1013.08
2018-12-23T03:48:52.807Z,1012.98
2018-12-23T03:49:52.775Z,1013.17
2018-12-23T03:50:52.743Z,1013.13
2018-12-23T03:51:52.714Z,1013.10
2018-12-23T03:52:52.688Z,1012.99
2018-12-23T03:53:52.651Z,1013.04
2018-12-23T03:54:52.621Z,1013.17
2018-12-23T03:55:52.596Z,1013.11
2018-12-23T03:56:52.559Z,1013.14
2018-12-23T03:57:52.535Z,1013.12
2018-12-23T03:58:52.496Z,1012.98
2018-12-23T03:59:52.468Z,1013.10
2018-12-23T04:00:52.436Z,1013.09
2018-12-23T04:01:52.406Z,1013.10
2018-12-23T04:02:52.374Z,1013.13
2018-12-23T04:03:52.347Z,1013.18
2018-12-23T04:04:52.313Z,1013.14
2018-12-23T04:05:52.290Z,1013.16
2018-12-23T04:06:52.250Z,1013.15
2018-12-23T04:07:52.221Z,1013.18
2018-12-23T04:08:52.191Z,1013.26
2018-12-23T04:09:52.159Z,1013.16
2018-12-23T04:10:52.127Z,1013.17
2018-12-23T04:11:52.097Z,1013.22
2018-12-23T04:12:52.117Z,1013.16
2018-12-23T04:13:52.034Z,1013.14
2018-12-23T04:14:52.007Z,1013.06
2018-12-23T04:15:51.983Z,1013.34
2018-12-23T04:16:51.943Z,1013.12
2018-12-23T04:17:51.912Z,1013.17
2018-12-23T04:18:51.880Z,1013.22
2018-12-23T04:19:51.853Z,1013.13
2018-12-23T04:20:51.819Z,1013.15
2018-12-23T04:21:51.788Z,1013.13
2018-12-23T04:22:51.756Z,1013.08
2018-12-23T04:23:51.736Z,1013.06
2018-12-23T04:24:51.698Z,1013.11
2018-12-23T04:25:51.672Z,1013.01
2018-12-23T04:26:51.634Z,1013.01
2018-12-23T04:27:51.602Z,1013.01
2018-12-23T04:28:51.573Z,1013.07
2018-12-23T04:29:51.549Z,1013.10
2018-12-23T04:30:51.514Z,1013.10
2018-12-23T04:31:51.480Z,1013.15
2018-12-23T04:32:51.450Z,1013.06
2018-12-23T04:33:51.418Z,1013.01
2018-12-23T04:34:51.392Z,1013.13
2018-12-23T04:35:51.359Z,1013.15
2018-12-23T04:36:51.631Z,1013.22
2018-12-23T04:37:51.297Z,1013.06
2018-12-23T04:38:51.266Z,1013.10
2018-12-23T04:39:51.234Z,1012.98
2018-12-23T04:40:51.205Z,1013.15
2018-12-23T04:41:51.173Z,1013.25
2018-12-23T04:42:51.143Z,1013.02
2018-12-23T04:43:51.111Z,1013.05
2018-12-23T04:44:51.080Z,1013.07
2018-12-23T04:45:51.063Z,1013.14
2018-12-23T04:46:51.026Z,1013.10
2018-12-23T04:47:50.988Z,1013.07
2018-12-23T04:48:50.958Z,1013.07
2018-12-23T04:49:50.927Z,1013.11
2018-12-23T04:50:50.897Z,1013.05
2018-12-23T04:51:50.864Z,1013.08
2018-12-23T04:52:50.836Z,1013.00
2018-12-23T04:53:50.805Z,1012.98
2018-12-23T04:54:50.774Z,1013.01
2018-12-23T04:55:50.740Z,1013.13
2018-12-23T04:56:50.711Z,1012.98
2018-12-23T04:57:50.683Z,1013.04
2018-12-23T04:58:50.649Z,1013.00
2018-12-23T04:59:50.620Z,1013.06
2018-12-23T05:00:50.596Z,1013.01
2018-12-23T05:01:50.560Z,1013.00
2018-12-23T05:02:50.526Z,1012.92
2018-12-23T05:03:50.496Z,1012.86
2018-12-23T05:04:50.484Z,1012.81
2018-12-23T05:05:50.433Z,1012.92
2018-12-23T05:06:50.403Z,1013.04
2018-12-23T05:07:50.373Z,1013.00
2018-12-23T05:08:50.353Z,1013.05
2018-12-23T05:09:50.312Z,1013.11
2018-12-23T05:10:50.289Z,1013.21
2018-12-23T05:11:50.249Z,1013.18
2018-12-23T05:12:50.223Z,1013.06
2018-12-23T05:13:50.188Z,1012.95
2018-12-23T05:14:50.158Z,1012.97
2018-12-23T05:15:50.132Z,1012.95
2018-12-23T05:16:50.260Z,1012.92
2018-12-23T05:17:50.067Z,1012.96
2018-12-23T05:18:50.036Z,1012.98
2018-12-23T05:19:50.003Z,1013.04
2018-12-23T05:20:49.980Z,1012.92
2018-12-23T05:21:49.942Z,1012.94
2018-12-23T05:22:49.913Z,1012.85
2018-12-23T05:23:49.949Z,1012.89
2018-12-23T05:24:49.852Z,1013.00
2018-12-23T05:25:49.821Z,1012.92
2018-12-23T05:26:49.790Z,1012.95
2018-12-23T05:27:49.758Z,1013.03
2018-12-23T05:28:49.728Z,1012.88
2018-12-23T05:29:49.696Z,1012.95
2018-12-23T05:30:49.667Z,1012.95
2018-12-23T05:31:49.644Z,1012.93
2018-12-23T05:32:49.608Z,1012.90
2018-12-23T05:33:49.578Z,1012.86
2018-12-23T05:34:49.544Z,1012.98
2018-12-23T05:35:49.516Z,1012.92
2018-12-23T05:36:52.612Z,1012.93
2018-12-23T05:37:49.452Z,1012.96
2018-12-23T05:38:49.419Z,1013.02
2018-12-23T05:39:49.391Z,1012.96
2018-12-23T05:40:51.359Z,1013.01
2018-12-23T05:41:49.329Z,1013.01
2018-12-23T05:42:49.296Z,1013.06
2018-12-23T05:43:49.267Z,1013.04
2018-12-23T05:44:49.235Z,1013.04
2018-12-23T05:45:49.205Z,1012.93
2018-12-23T05:46:49.173Z,1013.04
2018-12-23T05:47:49.142Z,1013.16
2018-12-23T05:48:49.115Z,1013.02
2018-12-23T05:49:49.082Z,1013.02
2018-12-23T05:50:49.050Z,1013.17
2018-12-23T05:51:49.022Z,1013.01
2018-12-23T05:52:48.990Z,1013.06
2018-12-23T05:53:48.961Z,1013.01
2018-12-23T05:54:48.928Z,1013.08
2018-12-23T05:55:48.904Z,1013.12
2018-12-23T05:56:48.878Z,1013.02
2018-12-23T05:57:48.838Z,1013.07
2018-12-23T05:58:48.804Z,1012.99
2018-12-23T05:59:48.783Z,1013.04
2018-12-23T06:00:48.743Z,1013.13
2018-12-23T06:01:48.770Z,1013.03
2018-12-23T06:02:48.682Z,1013.12
2018-12-23T06:03:48.651Z,1013.03
2018-12-23T06:04:48.622Z,1013.11
2018-12-23T06:05:48.591Z,1013.07
2018-12-23T06:06:48.563Z,1013.12
2018-12-23T06:07:48.533Z,1013.09
2018-12-23T06:08:48.498Z,1013.22
2018-12-23T06:09:48.469Z,1013.03
2018-12-23T06:10:48.437Z,1013.11
2018-12-23T06:11:48.406Z,1013.09
2018-12-23T06:12:48.377Z,1013.22
2018-12-23T06:13:48.344Z,1013.23
2018-12-23T06:14:48.315Z,1013.07
2018-12-23T06:15:48.284Z,1013.16
2018-12-23T06:16:48.254Z,1013.24
2018-12-23T06:17:48.224Z,1013.28
2018-12-23T06:18:48.192Z,1013.23
2018-12-23T06:19:48.160Z,1013.03
2018-12-23T06:20:48.132Z,1013.07
2018-12-23T06:21:48.100Z,1013.01
2018-12-23T06:22:48.070Z,1013.21
2018-12-23T06:23:48.038Z,1013.21
2018-12-23T06:24:48.008Z,1013.08
2018-12-23T06:25:47.978Z,1013.15
2018-12-23T06:26:47.949Z,1013.22
2018-12-23T06:27:47.916Z,1013.21
2018-12-23T06:28:47.888Z,1013.13
2018-12-23T06:29:47.859Z,1013.10
2018-12-23T06:30:47.823Z,1013.16
2018-12-23T06:31:47.794Z,1013.30
2018-12-23T06:32:47.763Z,1013.21
2018-12-23T06:33:47.741Z,1013.22
2018-12-23T06:34:47.706Z,1013.33
2018-12-23T06:35:47.677Z,1013.28
2018-12-23T06:36:47.641Z,1013.06
2018-12-23T06:37:47.610Z,1013.20
2018-12-23T06:38:47.579Z,1013.20
2018-12-23T06:39:47.550Z,1013.24
2018-12-23T06:40:47.521Z,1013.33
2018-12-23T06:41:47.488Z,1013.29
2018-12-23T06:42:47.467Z,1013.22
2018-12-23T06:43:47.425Z,1012.99
2018-12-23T06:44:47.395Z,1013.22
2018-12-23T06:45:47.365Z,1013.26
2018-12-23T06:46:47.335Z,1013.37
2018-12-23T06:47:47.303Z,1013.31
2018-12-23T06:48:47.279Z,1013.13
2018-12-23T06:49:47.251Z,1013.44
2018-12-23T06:50:47.211Z,1013.27
2018-12-23T06:51:47.182Z,1013.39
2018-12-23T06:52:47.151Z,1013.32
2018-12-23T06:53:47.121Z,1013.22
2018-12-23T06:54:47.090Z,1013.19
2018-12-23T06:55:47.060Z,1013.29
2018-12-23T06:56:47.029Z,1013.21
2018-12-23T06:57:46.998Z,1013.26
2018-12-23T06:58:46.966Z,1013.31
2018-12-23T06:59:47.020Z,1013.40
2018-12-23T07:00:46.907Z,1013.31
2018-12-23T07:01:46.876Z,1013.32
2018-12-23T07:02:46.845Z,1013.03
2018-12-23T07:03:46.815Z,1013.14
2018-12-23T07:04:46.788Z,1013.28
2018-12-23T07:05:46.753Z,1013.28
2018-12-23T07:06:46.721Z,1013.36
2018-12-23T07:07:46.692Z,1013.34
2018-12-23T07:08:46.680Z,1013.29
2018-12-23T07:09:46.633Z,1013.29
2018-12-23T07:10:46.603Z,1013.29
2018-12-23T07:11:46.573Z,1013.30
2018-12-23T07:12:46.538Z,1013.46
2018-12-23T07:13:46.507Z,1013.39
2018-12-23T07:14:46.477Z,1013.38
2018-12-23T07:15:46.446Z,1013.17
2018-12-23T07:16:46.415Z,1013.38
2018-12-23T07:17:46.385Z,1013.61
2018-12-23T07:18:46.354Z,1013.30
2018-12-23T07:19:46.322Z,1013.33
2018-12-23T07:20:46.294Z,1013.42
2018-12-23T07:21:46.262Z,1013.43
2018-12-23T07:22:46.238Z,1013.43
2018-12-23T07:23:46.201Z,1013.38
2018-12-23T07:24:46.185Z,1013.34
2018-12-23T07:25:46.141Z,1013.51
2018-12-23T07:26:46.110Z,1013.47
2018-12-23T07:27:46.079Z,1013.26
2018-12-23T07:28:46.048Z,1013.38
2018-12-23T07:29:46.018Z,1013.31
2018-12-23T07:30:45.986Z,1013.40
2018-12-23T07:31:45.966Z,1013.40
2018-12-23T07:32:45.925Z,1013.42
2018-12-23T07:33:45.896Z,1013.26
2018-12-23T07:34:45.865Z,1013.34
2018-12-23T07:35:45.834Z,1013.29
2018-12-23T07:36:49.730Z,1013.15
2018-12-23T07:37:45.775Z,1013.12
2018-12-23T07:38:45.746Z,1013.35
2018-12-23T07:39:45.717Z,1013.32
2018-12-23T07:40:45.684Z,1013.32
2018-12-23T07:41:45.652Z,1013.24
2018-12-23T07:42:45.621Z,1013.29
2018-12-23T07:43:45.591Z,1013.39
2018-12-23T07:44:45.568Z,1013.39
2018-12-23T07:45:45.529Z,1013.27
2018-12-23T07:46:45.498Z,1013.34
2018-12-23T07:47:45.468Z,1013.05
2018-12-23T07:48:45.438Z,1013.22
2018-12-23T07:49:45.407Z,1013.27
2018-12-23T07:50:45.376Z,1013.33
2018-12-23T07:51:45.345Z,1013.19
2018-12-23T07:52:45.314Z,1013.40
2018-12-23T07:53:45.284Z,1013.34
2018-12-23T07:54:45.253Z,1013.31
2018-12-23T07:55:45.224Z,1013.54
2018-12-23T07:56:45.192Z,1013.56
2018-12-23T07:57:45.162Z,1013.47
2018-12-23T07:58:45.130Z,1013.32
2018-12-23T07:59:45.105Z,1013.44
2018-12-23T08:00:45.069Z,1013.44
2018-12-23T08:01:45.056Z,1013.49
2018-12-23T08:02:45.008Z,1013.53
2018-12-23T08:03:44.977Z,1013.14
2018-12-23T08:04:44.948Z,1013.37
2018-12-23T08:05:44.916Z,1013.63
2018-12-23T08:06:44.887Z,1013.25
2018-12-23T08:07:44.858Z,1013.42
2018-12-23T08:08:44.826Z,1013.45
2018-12-23T08:09:44.796Z,1013.44
2018-12-23T08:10:44.764Z,1013.58
2018-12-23T08:11:44.733Z,1013.43
2018-12-23T08:12:44.754Z,1013.46
2018-12-23T08:13:44.674Z,1013.48
2018-12-23T08:14:44.642Z,1013.58
2018-12-23T08:15:44.614Z,1013.43
2018-12-23T08:16:44.581Z,1013.47
2018-12-23T08:17:44.550Z,1013.44
2018-12-23T08:18:44.519Z,1013.39
2018-12-23T08:19:44.487Z,1013.46
2018-12-23T08:20:44.462Z,1013.41
2018-12-23T08:21:44.427Z,1013.11
2018-12-23T08:22:44.400Z,1013.38
2018-12-23T08:23:44.366Z,1013.20
2018-12-23T08:24:44.406Z,1013.25
2018-12-23T08:25:44.306Z,1013.22
2018-12-23T08:26:44.284Z,1013.31
2018-12-23T08:27:44.243Z,1013.12
2018-12-23T08:28:44.214Z,1013.29
2018-12-23T08:29:44.183Z,1013.36
2018-12-23T08:30:44.154Z,1013.38
2018-12-23T08:31:44.122Z,1013.32
2018-12-23T08:32:44.094Z,1013.33
2018-12-23T08:33:44.063Z,1013.18
2018-12-23T08:34:44.034Z,1013.41
2018-12-23T08:35:43.999Z,1013.43
2018-12-23T08:36:43.970Z,1013.25
2018-12-23T08:37:44.664Z,1013.40
2018-12-23T08:38:43.908Z,1013.48
2018-12-23T08:39:43.880Z,1013.29
2018-12-23T08:40:43.848Z,1013.23
2018-12-23T08:41:43.821Z,1013.41
2018-12-23T08:42:43.788Z,1013.45
2018-12-23T08:43:43.757Z,1013.33
2018-12-23T08:44:43.728Z,1013.33
2018-12-23T08:45:43.702Z,1013.25
2018-12-23T08:46:43.666Z,1013.34
2018-12-23T08:47:43.636Z,1013.51
2018-12-23T08:48:43.613Z,1013.36
2018-12-23T08:49:43.580Z,1013.28
2018-12-23T08:50:43.545Z,1013.35
2018-12-23T08:51:43.516Z,1013.63
2018-12-23T08:52:43.490Z,1013.26
2018-12-23T08:53:43.460Z,1013.32
2018-12-23T08:54:43.425Z,1013.30
2018-12-23T08:55:43.401Z,1013.34
2018-12-23T08:56:43.384Z,1013.31
2018-12-23T08:57:43.339Z,1013.44
2018-12-23T08:58:43.304Z,1013.42
2018-12-23T08:59:43.276Z,1013.39
2018-12-23T09:00:43.245Z,1013.42
2018-12-23T09:01:43.215Z,1013.39
2018-12-23T09:02:43.184Z,1013.29
2018-12-23T09:03:43.153Z,1013.46
2018-12-23T09:04:43.126Z,1013.27
2018-12-23T09:05:43.094Z,1013.32
2018-12-23T09:06:43.062Z,1013.56
2018-12-23T09:07:43.033Z,1013.38
2018-12-23T09:08:43.002Z,1013.40
2018-12-23T09:09:42.973Z,1013.43
2018-12-23T09:10:42.943Z,1013.50
2018-12-23T09:11:43.211Z,1013.40
2018-12-23T09:12:42.885Z,1013.50
2018-12-23T09:13:42.852Z,1013.42
2018-12-23T09:14:42.820Z,1013.47
2018-12-23T09:15:42.897Z,1013.34
2018-12-23T09:16:42.762Z,1013.44
2018-12-23T09:17:42.734Z,1013.46
2018-12-23T09:18:42.701Z,1013.44
2018-12-23T09:19:42.672Z,1013.44
2018-12-23T09:20:42.643Z,1013.33
2018-12-23T09:21:42.610Z,1013.58
2018-12-23T09:22:42.589Z,1013.41
2018-12-23T09:23:42.550Z,1013.42
2018-12-23T09:24:42.521Z,1013.40
2018-12-23T09:25:42.492Z,1013.47
2018-12-23T09:26:42.463Z,1013.35
2018-12-23T09:27:42.429Z,1013.36
2018-12-23T09:28:42.403Z,1013.41
2018-12-23T09:29:42.370Z,1013.40
2018-12-23T09:30:42.340Z,1013.50
2018-12-23T09:31:42.313Z,1013.42
2018-12-23T09:32:42.281Z,1013.51
2018-12-23T09:33:42.251Z,1013.40
2018-12-23T09:34:42.224Z,1013.46
2018-12-23T09:35:42.190Z,1013.39
2018-12-23T09:36:42.163Z,1013.51
2018-12-23T09:37:42.144Z,1013.48
2018-12-23T09:38:42.099Z,1013.56
2018-12-23T09:39:42.071Z,1013.49
2018-12-23T09:40:42.043Z,1013.53
2018-12-23T09:41:42.013Z,1013.39
2018-12-23T09:42:41.980Z,1013.37
2018-12-23T09:43:41.950Z,1013.34
2018-12-23T09:44:41.921Z,1013.16
2018-12-23T09:45:41.890Z,1013.28
2018-12-23T09:46:41.861Z,1013.18
2018-12-23T09:47:41.843Z,1013.26
2018-12-23T09:48:41.813Z,1013.30
2018-12-23T09:49:41.771Z,1013.24
2018-12-23T09:50:41.748Z,1013.19
2018-12-23T09:51:41.710Z,1013.31
2018-12-23T09:52:41.680Z,1013.42
2018-12-23T09:53:41.652Z,1013.26
2018-12-23T09:54:41.630Z,1013.45
2018-12-23T09:55:41.614Z,1013.20
2018-12-23T09:56:41.563Z,1013.16
2018-12-23T09:57:41.531Z,1013.36
2018-12-23T09:58:41.500Z,1013.11
2018-12-23T09:59:41.471Z,1013.34
2018-12-23T10:00:41.440Z,1013.22
2018-12-23T10:01:41.412Z,1013.08
2018-12-23T10:02:41.382Z,1012.99
2018-12-23T10:03:41.400Z,1013.24
2018-12-23T10:04:41.323Z,1013.29
2018-12-23T10:05:41.294Z,1013.28
2018-12-23T10:06:41.265Z,1013.23
2018-12-23T10:07:41.237Z,1013.11
2018-12-23T10:08:41.200Z,1013.22
2018-12-23T10:09:41.171Z,1013.22
2018-12-23T10:10:41.140Z,1013.23
2018-12-23T10:11:41.109Z,1013.23
2018-12-23T10:12:41.081Z,1013.04
2018-12-23T10:13:41.052Z,1013.15
2018-12-23T10:14:41.019Z,1013.22
2018-12-23T10:15:40.996Z,1013.07
2018-12-23T10:16:40.960Z,1013.21
2018-12-23T10:17:40.933Z,1013.02
2018-12-23T10:18:40.903Z,1013.23
2018-12-23T10:19:40.873Z,1013.19
2018-12-23T10:20:40.840Z,1013.27
2018-12-23T10:21:40.811Z,1013.30
2018-12-23T10:22:40.778Z,1013.17
2018-12-23T10:23:40.750Z,1013.17
2018-12-23T10:24:40.718Z,1013.11
2018-12-23T10:25:40.689Z,1013.14
2018-12-23T10:26:40.658Z,1013.24
2018-12-23T10:27:40.637Z,1013.15
2018-12-23T10:28:40.599Z,1013.17
2018-12-23T10:29:40.569Z,1013.14
2018-12-23T10:30:40.537Z,1013.06
2018-12-23T10:31:40.513Z,1013.06
2018-12-23T10:32:40.477Z,1013.11
2018-12-23T10:33:40.449Z,1013.09
2018-12-23T10:34:40.418Z,1012.87
2018-12-23T10:35:40.492Z,1013.11
2018-12-23T10:36:40.359Z,1012.81
2018-12-23T10:37:40.329Z,1013.07
2018-12-23T10:38:40.296Z,1013.04
2018-12-23T10:39:40.271Z,1013.01
2018-12-23T10:40:40.237Z,1013.07
2018-12-23T10:41:40.208Z,1013.01
2018-12-23T10:42:40.178Z,1012.89
2018-12-23T10:43:40.148Z,1012.99
2018-12-23T10:44:40.126Z,1012.95
2018-12-23T10:45:40.090Z,1012.88
2018-12-23T10:46:40.056Z,1012.85
2018-12-23T10:47:40.029Z,1012.95
2018-12-23T10:48:39.997Z,1012.97
2018-12-23T10:49:39.969Z,1012.86
2018-12-23T10:50:39.938Z,1012.90
2018-12-23T10:51:39.907Z,1012.95
2018-12-23T10:52:39.907Z,1012.87
2018-12-23T10:53:39.847Z,1012.84
2018-12-23T10:54:39.827Z,1012.78
2018-12-23T10:55:39.789Z,1013.12
2018-12-23T10:56:39.758Z,1013.00
2018-12-23T10:57:39.729Z,1012.99
2018-12-23T10:58:39.700Z,1012.86
2018-12-23T10:59:39.670Z,1012.94
2018-12-23T11:00:39.639Z,1012.99
2018-12-23T11:01:39.608Z,1013.01
2018-12-23T11:02:39.582Z,1012.96
2018-12-23T11:03:39.554Z,1012.82
2018-12-23T11:04:39.522Z,1012.85
2018-12-23T11:05:39.494Z,1012.67
2018-12-23T11:06:39.463Z,1012.66
2018-12-23T11:07:39.431Z,1012.81
2018-12-23T11:08:39.800Z,1012.79
2018-12-23T11:09:39.370Z,1012.74
2018-12-23T11:10:39.340Z,1012.72
2018-12-23T11:11:39.319Z,1012.71
2018-12-23T11:12:39.283Z,1012.69
2018-12-23T11:13:39.250Z,1012.59
2018-12-23T11:14:39.220Z,1012.55
2018-12-23T11:15:39.189Z,1012.65
2018-12-23T11:16:39.162Z,1012.68
2018-12-23T11:17:39.130Z,1012.68
2018-12-23T11:18:39.099Z,1012.66
2018-12-23T11:19:39.071Z,1012.71
2018-12-23T11:20:39.040Z,1012.75
2018-12-23T11:21:39.012Z,1012.65
2018-12-23T11:22:38.982Z,1012.63
2018-12-23T11:23:38.950Z,1012.62
2018-12-23T11:24:38.921Z,1012.58
2018-12-23T11:25:38.895Z,1012.56
2018-12-23T11:26:38.860Z,1012.57
2018-12-23T11:27:38.841Z,1012.59
2018-12-23T11:28:38.800Z,1012.59
2018-12-23T11:29:38.773Z,1012.64
2018-12-23T11:30:38.749Z,1012.73
2018-12-23T11:31:38.713Z,1012.66
2018-12-23T11:32:38.683Z,1012.72
2018-12-23T11:33:38.653Z,1012.63
2018-12-23T11:34:38.714Z,1012.62
2018-12-23T11:35:38.592Z,1012.65
2018-12-23T11:36:38.562Z,1012.67
2018-12-23T11:37:38.533Z,1012.63
2018-12-23T11:38:38.505Z,1012.57
2018-12-23T11:39:38.473Z,1012.63
2018-12-23T11:40:38.443Z,1012.61
2018-12-23T11:41:38.413Z,1012.52
2018-12-23T11:42:38.381Z,1012.53
2018-12-23T11:43:38.353Z,1012.54
2018-12-23T11:44:38.326Z,1012.62
2018-12-23T11:45:38.294Z,1012.42
2018-12-23T11:46:38.263Z,1012.51
2018-12-23T11:47:38.234Z,1012.38
2018-12-23T11:48:38.204Z,1012.52
2018-12-23T11:49:38.477Z,1012.39
2018-12-23T11:50:38.142Z,1012.41
2018-12-23T11:51:38.114Z,1012.35
2018-12-23T11:52:38.083Z,1012.49
2018-12-23T11:53:38.054Z,1012.44
2018-12-23T11:54:38.132Z,1012.35
2018-12-23T11:55:37.993Z,1012.35
2018-12-23T11:56:37.965Z,1012.19
2018-12-23T11:57:37.934Z,1012.34
2018-12-23T11:58:37.910Z,1012.25
2018-12-23T11:59:37.876Z,1012.29
2018-12-23T12:00:37.851Z,1012.36
2018-12-23T12:01:37.816Z,1012.28
2018-12-23T12:02:37.785Z,1012.21
2018-12-23T12:03:37.764Z,1012.30
2018-12-23T12:04:37.729Z,1012.27
2018-12-23T12:05:37.701Z,1012.23